LGTS - Thessaloniki/Mik, Greece
Distance from station: 15km
: 28/03/2023 21:50
Few Clouds
Few Clouds

: 54 km/h, : 74 km/h
: 9°C
Wind Chill: 4°C
: -3°C
: 43%
: 1018 hPa
Clouds: Few Clouds
Visibility: 10 km
Cloud details: Few Clouds 914 m
2023/03/28 18:50 LGTS 281850Z 32029G40KT 9999 FEW030 09/M03 Q1018 NOSIG
LGKZ - Kozani (civ/Army, Greece
Distance from station: 113km
: 28/03/2023 21:50


: 9 km/h
: 2°C
Wind Chill: -1°C
: -13°C
: 32%
: 1018 hPa
2023/03/28 18:50 LGKZ 281850Z AUTO 32005KT 300V010 //// // ////// 02/M13 Q1018 RE//
 
LGKV - Kavala/Chrisoupo, Greece
Distance from station: 132km
: 28/03/2023 21:50


: 22 km/h
: 6°C
Wind Chill: 2°C
: 3°C
: 81%
: 1015 hPa
Clouds:
Visibility: 10 km
Cloud details: Few Clouds 366 m
610 m
2023/03/28 18:50 LGKV 281850Z 09012KT 9999 FEW012 OVC020 06/03 Q1015
LGBL - Nea Anchialos, Greece
Distance from station: 156km
: 28/03/2023 21:50
Few Clouds
Few Clouds

: 7 km/h
: 5°C
Wind Chill: 3°C
: 4°C
: 93%
: 1018 hPa
Clouds: Few Clouds
Visibility: 10 km
Cloud details: Few Clouds 914 m
2023/03/28 18:50 LGBL 281850Z 28004KT 9999 FEW030 05/04 Q1018
 
LGSK - Skiathos Island, Greece
Distance from station: 161km
: 28/03/2023 12:50
NOT Current
Partly Cloudy
Partly Cloudy

: 26 km/h, : 44 km/h
: 12°C
: 5°C
: 63%
: 1009 hPa
Clouds: Partly Cloudy
Visibility: 10 km
Cloud details: Partly Cloudy 762 m
2023/03/28 09:50 LGSK 280950Z 34014G24KT 9999 SCT025 12/05 Q1009
LWSK - Skopje/Petrovac, Macedonia
Distance from station: 195km
: 28/03/2023 22:00
Partly Cloudy
Partly Cloudy

: 24 km/h
: 3°C
Wind Chill: -2°C
: -3°C
: 65%
: 1022 hPa
Clouds: Partly Cloudy
Visibility: 10 km
Cloud details: Partly Cloudy 1829 m
2023/03/28 19:00 LWSK 281900Z 02013KT 9999 SCT060 03/M03 Q1022 NOSIG
 
LGLM - Limnos Island Ar, Greece
Distance from station: 196km
: 28/03/2023 21:50
 ,
,

: 43 km/h, : 69 km/h
: 8°C
Wind Chill: 3°C
: 5°C
: 82%
: 1012 hPa
: Light Rain
Clouds: Mostly Cloudy
Visibility: 10 km
Cloud details: Few Clouds 549 m
Mostly Cloudy 762 m
2023/03/28 18:50 LGLM 281850Z 05023G37KT 9999 -RA FEW018TCU BKN025 08/05 Q1012
LWOH - Ohrid, Macedonia
Distance from station: 202km
: 28/03/2023 22:00
Few Clouds
Few Clouds

: 7 km/h
: 0°C
Wind Chill: -3°C
: -12°C
: 40%
: 1020 hPa
Clouds: Few Clouds
Visibility: 10 km
Cloud details: Few Clouds 1006 m
2023/03/28 19:00 LWOH 281900Z 36004KT 9999 FEW033 00/M12 Q1020
 
LGSY - Skiros, Greece
Distance from station: 217km
: 28/03/2023 21:50
Few Clouds
Few Clouds

: 52 km/h, : 70 km/h
: 11°C
: -2°C
: 41%
: 1014 hPa
Clouds: Few Clouds
Visibility: 10 km
Cloud details: Few Clouds 610 m
2023/03/28 18:50 LGSY 281850Z 31028G38KT 9999 FEW020 11/M02 Q1014 RMK BKN080 BKN180 BLU
LGIO - Ioannina, Greece
Distance from station: 218km
: 28/03/2023 21:50


: 19 km/h
: 5°C
Wind Chill: 1°C
: -6°C
: 45%
: 1019 hPa
2023/03/28 18:50 LGIO 281850Z AUTO 32010KT //// // ////// 05/M06 Q1019 RE//
 
LBPD - Plovdiv, Bulgaria
Distance from station: 222km
: 28/03/2023 22:00


: 44 km/h, : 63 km/h
: 6°C
Wind Chill: 1°C
: -7°C
: 39%
: 1015 hPa
Clouds:
Visibility: 10 km
Cloud details: 3962 m
2023/03/28 19:00 LBPD 281900Z AUTO 28024G34KT 9999 OVC130/// 06/M07 Q1015 NOSIG
LBSF - Sofia (observato, Bulgaria
Distance from station: 229km
: 28/03/2023 22:00
Few Clouds
Few Clouds

: 22 km/h
: 0°C
Wind Chill: -6°C
: -6°C
: 64%
: 1018 hPa
Clouds: Few Clouds
Visibility: 10 km
Cloud details: Few Clouds 1920 m
2023/03/28 19:00 LBSF 281900Z AUTO 27012KT 9999 FEW063/// 00/M06 Q1018 NOSIG
 
LGAL - Alexandroupolis, Greece
Distance from station: 242km
: 28/03/2023 21:50
Mostly Cloudy
Mostly Cloudy

: 19 km/h
: 6°C
Wind Chill: 3°C
: 3°C
: 81%
: 1014 hPa
Clouds: Mostly Cloudy
Visibility: 10 km
Cloud details: Few Clouds 366 m
Mostly Cloudy 762 m
2023/03/28 18:50 LGAL 281850Z 36010KT 9999 FEW012 BKN025 06/03 Q1014
LGPZ - Preveza/Aktion, Greece
Distance from station: 274km
: 28/03/2023 21:50
Few Clouds
Few Clouds

: 24 km/h, : 50 km/h
: 11°C
: -4°C
: 35%
: 1020 hPa
Clouds: Few Clouds
Visibility: 10 km
Cloud details: Few Clouds 610 m
2023/03/28 18:50 LGPZ 281850Z 32013G27KT 9999 FEW020 11/M04 Q1020
 
BKPR - Prishtina, Yugoslavia
Distance from station: 280km
: 28/03/2023 22:00
Partly Cloudy
Partly Cloudy

: 28 km/h
: 1°C
Wind Chill: -5°C
: -5°C
: 65%
: 1022 hPa
Clouds: Partly Cloudy
Visibility: 10 km
Cloud details: Partly Cloudy 1524 m
2023/03/28 19:00 BKPR 281900Z 31015KT 9999 SCT050 01/M05 Q1022 NOSIG
LGEL - Elefsis (hel-Afb, Greece
Distance from station: 284km
: 28/03/2023 21:50
 ,
,

: 15 km/h
: 6°C
Wind Chill: 3°C
: 3°C
: 81%
: 1016 hPa
: Light Rain
Clouds: Mostly Cloudy
Visibility: 8 km
Cloud details: Few Clouds 366 m
Partly Cloudy 610 m
Mostly Cloudy 2134 m
2023/03/28 18:50 LGEL 281850Z 32008KT 8000 -RA FEW012 SCT020 BKN070 06/03 Q1016 RERA
 
LATI - Tirana, Albania
Distance from station: 291km
: 28/03/2023 21:50
Few Clouds
Few Clouds

: 7 km/h
: 6°C
Wind Chill: 4°C
: -5°C
: 46%
: 1023 hPa
Clouds: Few Clouds
Visibility: 10 km
Cloud details: Few Clouds 3353 m
2023/03/28 18:50 LATI 281850Z 29004KT 9999 FEW110 06/M05 Q1023 NOSIG
LGKR - Ioannis Kapodist, Greece
Distance from station: 292km
: 28/03/2023 21:50
Partly Cloudy
Partly Cloudy

: 33 km/h
: 11°C
: 0°C
: 47%
: 1020 hPa
Clouds: Partly Cloudy
Visibility: 10 km
Cloud details: Partly Cloudy 914 m
2023/03/28 18:50 LGKR 281850Z 35018KT 9999 SCT030 11/00 Q1020 NOSIG